createdAt,value
2023-01-02T00:01:50.161Z,9.80
2023-01-02T00:04:16.629Z,8.00
2023-01-02T00:06:43.158Z,7.80
2023-01-02T00:09:09.708Z,9.20
2023-01-02T00:11:36.245Z,7.25
2023-01-02T00:14:02.705Z,9.80
2023-01-02T00:16:29.204Z,9.00
2023-01-02T00:18:55.732Z,9.00
2023-01-02T00:21:22.148Z,12.00
2023-01-02T00:23:48.581Z,11.40
2023-01-02T00:26:15.097Z,10.20
2023-01-02T00:28:41.705Z,8.00
2023-01-02T00:31:09.376Z,9.00
2023-01-02T00:33:36.507Z,9.25
2023-01-02T00:36:04.256Z,10.00
2023-01-02T00:38:30.770Z,8.00
2023-01-02T00:40:57.236Z,9.00
2023-01-02T00:43:23.682Z,8.80
2023-01-02T00:45:50.162Z,8.00
2023-01-02T00:48:16.629Z,10.00
2023-01-02T00:50:43.083Z,8.40
2023-01-02T00:53:09.704Z,8.00
2023-01-02T00:55:36.210Z,7.00
2023-01-02T00:58:02.763Z,8.00
2023-01-02T01:00:29.380Z,8.00
2023-01-02T01:02:57.145Z,8.60
2023-01-02T01:05:24.295Z,8.40
2023-01-02T01:07:50.840Z,6.80
2023-01-02T01:10:17.369Z,7.25
2023-01-02T01:12:43.912Z,8.20
2023-01-02T01:15:10.703Z,8.00
2023-01-02T01:17:37.173Z,6.00
2023-01-02T01:20:03.839Z,7.00
2023-01-02T01:22:30.386Z,8.25
2023-01-02T01:24:56.908Z,6.67
2023-01-02T01:27:23.352Z,8.40
2023-01-02T01:29:49.852Z,8.00
2023-01-02T01:32:16.326Z,6.50
2023-01-02T01:34:43.583Z,8.00
2023-01-02T01:37:10.205Z,8.00
2023-01-02T01:39:36.633Z,8.00
2023-01-02T01:42:03.139Z,6.25
2023-01-02T01:44:38.437Z,7.00
2023-01-02T01:47:04.959Z,8.00
2023-01-02T01:49:31.820Z,6.40
2023-01-02T01:52:09.595Z,7.00
2023-01-02T01:54:39.401Z,6.80
2023-01-02T01:57:12.077Z,7.00
2023-01-02T01:59:39.335Z,7.50
2023-01-02T02:02:06.558Z,7.20
2023-01-02T02:04:33.530Z,6.75
2023-01-02T02:07:00.130Z,6.50
2023-01-02T02:09:46.848Z,5.00
2023-01-02T02:12:14.018Z,8.00
2023-01-02T02:14:40.443Z,5.25
2023-01-02T02:17:22.299Z,6.00
2023-01-02T02:19:55.030Z,6.00
2023-01-02T02:22:31.932Z,8.00
2023-01-02T02:25:17.198Z,7.50
2023-01-02T02:27:43.647Z,7.75
2023-01-02T02:30:14.139Z,6.00
2023-01-02T02:32:40.692Z,6.00
2023-01-02T02:35:29.781Z,9.00
2023-01-02T02:38:06.198Z,5.00
2023-01-02T02:40:32.793Z,8.00
2023-01-02T02:43:05.471Z,7.00
2023-01-02T02:45:48.399Z,5.60
2023-01-02T02:48:26.538Z,8.80
2023-01-02T02:51:03.139Z,7.60
2023-01-02T02:53:35.878Z,7.00
2023-01-02T02:56:04.821Z,5.25
2023-01-02T02:58:31.298Z,6.00
2023-01-02T03:01:08.118Z,8.00
2023-01-02T03:03:34.716Z,6.40
2023-01-02T03:06:01.139Z,5.80
2023-01-02T03:08:47.806Z,6.00
2023-01-02T03:11:15.471Z,7.00
2023-01-02T03:13:57.403Z,8.00
2023-01-02T03:16:28.580Z,6.00
2023-01-02T03:19:04.281Z,6.25
2023-01-02T03:21:41.532Z,6.50
2023-01-02T03:24:10.663Z,6.40
2023-01-02T03:26:39.858Z,8.00
2023-01-02T03:29:20.842Z,5.50
2023-01-02T03:31:50.763Z,7.75
2023-01-02T03:34:21.590Z,7.00
2023-01-02T03:36:50.789Z,6.50
2023-01-02T03:39:19.367Z,6.75
2023-01-02T03:41:49.482Z,6.00
2023-01-02T03:44:17.047Z,6.40
2023-01-02T03:47:02.953Z,8.00
2023-01-02T03:49:35.010Z,8.00
2023-01-02T03:52:01.545Z,7.00
2023-01-02T03:54:29.023Z,6.00
2023-01-02T03:56:58.324Z,6.00
2023-01-02T03:59:27.810Z,6.00
2023-01-02T04:02:00.491Z,6.00
2023-01-02T04:04:32.289Z,6.75
2023-01-02T04:07:01.309Z,4.75
2023-01-02T04:09:29.487Z,8.00
2023-01-02T04:12:01.735Z,6.00
2023-01-02T04:14:34.328Z,6.00
2023-01-02T04:17:02.439Z,5.75
2023-01-02T04:19:31.967Z,5.60
2023-01-02T04:22:01.978Z,5.40
2023-01-02T04:24:31.422Z,6.00
2023-01-02T04:27:06.516Z,6.50
2023-01-02T04:29:33.109Z,8.00
2023-01-02T04:32:05.323Z,5.40
2023-01-02T04:34:33.249Z,5.50
2023-01-02T04:36:59.677Z,7.00
2023-01-02T04:39:27.133Z,7.00
2023-01-02T04:41:54.027Z,6.00
2023-01-02T04:44:20.732Z,5.75
2023-01-02T04:46:47.205Z,6.00
2023-01-02T04:49:13.652Z,4.40
2023-01-02T04:51:40.168Z,5.40
2023-01-02T04:54:06.660Z,6.00
2023-01-02T04:56:33.183Z,6.00
2023-01-02T04:58:59.751Z,7.00
2023-01-02T05:01:26.443Z,7.00
2023-01-02T05:03:53.099Z,6.60
2023-01-02T05:06:19.932Z,6.00
2023-01-02T05:08:46.458Z,7.00
2023-01-02T05:11:14.689Z,6.00
2023-01-02T05:13:41.347Z,6.60
2023-01-02T05:16:08.499Z,6.33
2023-01-02T05:18:34.991Z,6.60
2023-01-02T05:21:05.810Z,5.50
2023-01-02T05:23:50.215Z,6.40
2023-01-02T05:26:17.330Z,9.00
2023-01-02T05:28:43.971Z,9.00
2023-01-02T05:31:10.655Z,7.50
2023-01-02T05:33:37.155Z,6.40
2023-01-02T05:36:07.475Z,8.25
2023-01-02T05:38:34.166Z,7.60
2023-01-02T05:41:01.610Z,6.00
2023-01-02T05:43:29.619Z,8.60
2023-01-02T05:45:56.056Z,7.40
2023-01-02T05:48:22.469Z,7.40
2023-01-02T05:50:48.925Z,7.00
2023-01-02T05:53:16.528Z,7.00
2023-01-02T05:55:43.033Z,9.60
2023-01-02T05:58:09.458Z,7.00
2023-01-02T06:00:35.918Z,6.40
2023-01-02T06:03:02.562Z,8.50
2023-01-02T06:05:29.107Z,6.50
2023-01-02T06:07:55.598Z,8.20
2023-01-02T06:10:22.059Z,9.00
2023-01-02T06:12:48.500Z,10.00
2023-01-02T06:15:15.075Z,9.75
2023-01-02T06:17:41.639Z,7.00
2023-01-02T06:20:11.112Z,8.25
2023-01-02T06:22:37.611Z,9.60
2023-01-02T06:25:04.202Z,6.60
2023-01-02T06:27:31.700Z,8.00
2023-01-02T06:29:58.206Z,7.00
2023-01-02T06:32:24.645Z,7.00
2023-01-02T06:34:51.088Z,6.60
2023-01-02T06:37:19.662Z,13.80
2023-01-02T06:39:46.135Z,12.00
2023-01-02T06:42:12.615Z,12.00
2023-01-02T06:44:39.052Z,9.25
2023-01-02T06:47:05.489Z,6.80
2023-01-02T06:49:31.922Z,8.00
2023-01-02T06:51:58.373Z,7.00
2023-01-02T06:54:24.796Z,7.00
2023-01-02T06:56:51.216Z,7.00
2023-01-02T06:59:17.703Z,7.00
2023-01-02T07:01:44.385Z,8.25
2023-01-02T07:04:15.083Z,6.00
2023-01-02T07:06:41.554Z,7.00
2023-01-02T07:09:08.169Z,6.60
2023-01-02T07:11:35.797Z,6.40
2023-01-02T07:14:02.304Z,7.40
2023-01-02T07:16:28.943Z,5.40
2023-01-02T07:18:55.429Z,7.00
2023-01-02T07:21:22.376Z,7.25
2023-01-02T07:23:48.928Z,7.25
2023-01-02T07:26:15.466Z,5.60
2023-01-02T07:28:41.941Z,6.00
2023-01-02T07:31:11.374Z,7.00
2023-01-02T07:33:38.019Z,7.00
2023-01-02T07:36:05.936Z,8.00
2023-01-02T07:38:34.017Z,7.00
2023-01-02T07:41:00.724Z,6.00
2023-01-02T07:43:27.166Z,7.00
2023-01-02T07:45:53.713Z,7.00
2023-01-02T07:48:20.186Z,6.00
2023-01-02T07:50:47.031Z,5.00
2023-01-02T07:53:13.655Z,6.50
2023-01-02T07:55:40.156Z,6.00
2023-01-02T07:58:06.643Z,5.20
2023-01-02T08:00:33.155Z,6.20
2023-01-02T08:03:00.474Z,6.50
2023-01-02T08:05:26.974Z,6.00
2023-01-02T08:07:53.499Z,7.00
2023-01-02T08:10:19.944Z,5.00
2023-01-02T08:12:46.412Z,6.40
2023-01-02T08:15:12.915Z,6.50
2023-01-02T08:17:41.532Z,7.00
2023-01-02T08:20:09.009Z,9.00
2023-01-02T08:22:35.442Z,5.00
2023-01-02T08:25:01.952Z,6.00
2023-01-02T08:27:28.474Z,6.00
2023-01-02T08:29:54.997Z,7.00
2023-01-02T08:32:21.477Z,5.60
2023-01-02T08:34:47.909Z,6.60
2023-01-02T08:37:14.355Z,8.60
2023-01-02T08:39:40.953Z,7.60
2023-01-02T08:42:07.548Z,8.00
2023-01-02T08:44:34.738Z,7.00
2023-01-02T08:47:01.310Z,6.40
2023-01-02T08:49:27.783Z,6.00
2023-01-02T08:51:54.274Z,9.60
2023-01-02T08:54:20.703Z,8.00
2023-01-02T08:56:48.432Z,6.20
2023-01-02T08:59:15.231Z,5.00
2023-01-02T09:01:42.094Z,8.60
2023-01-02T09:04:12.451Z,8.00
2023-01-02T09:06:39.970Z,7.00
2023-01-02T09:09:11.355Z,6.50
2023-01-02T09:11:43.693Z,8.00
2023-01-02T09:14:10.214Z,8.50
2023-01-02T09:16:36.701Z,8.00
2023-01-02T09:19:03.243Z,8.00
2023-01-02T09:21:30.238Z,7.00
2023-01-02T09:23:56.818Z,7.00
2023-01-02T09:26:23.279Z,7.75
2023-01-02T09:28:49.730Z,7.80
2023-01-02T09:31:16.775Z,5.50
2023-01-02T09:33:44.827Z,8.00
2023-01-02T09:36:12.586Z,5.00
2023-01-02T09:38:39.090Z,6.00
2023-01-02T09:41:13.881Z,6.25
2023-01-02T09:43:46.294Z,4.00
2023-01-02T09:46:17.316Z,6.00
2023-01-02T09:48:43.813Z,6.00
2023-01-02T09:51:11.677Z,7.00
2023-01-02T09:53:38.215Z,7.00
2023-01-02T09:56:10.862Z,4.50
2023-01-02T09:58:41.390Z,6.00
2023-01-02T10:01:13.080Z,5.00
2023-01-02T10:04:05.713Z,5.50
2023-01-02T10:06:38.443Z,18.60
2023-01-02T10:09:04.934Z,8.00
2023-01-02T10:11:43.360Z,8.00
2023-01-02T10:14:33.699Z,7.50
2023-01-02T10:16:57.923Z,7.50
2023-01-02T10:19:40.566Z,28.00
2023-01-02T10:22:08.188Z,24.40
2023-01-02T10:24:45.548Z,22.00
2023-01-02T10:27:15.641Z,10.00
2023-01-02T10:29:59.077Z,12.60
2023-01-02T10:32:28.120Z,23.25
2023-01-02T10:35:03.742Z,25.00
2023-01-02T10:37:30.268Z,21.75
2023-01-02T10:39:56.796Z,9.50
2023-01-02T10:42:24.178Z,8.50
2023-01-02T10:44:51.054Z,12.00
2023-01-02T10:47:20.934Z,9.00
2023-01-02T10:49:48.218Z,8.75
2023-01-02T10:52:24.018Z,5.00
2023-01-02T10:54:56.731Z,7.00
2023-01-02T10:57:46.097Z,6.00
2023-01-02T11:00:15.554Z,6.40
2023-01-02T11:02:42.183Z,9.00
2023-01-02T11:05:18.469Z,17.40
2023-01-02T11:07:47.702Z,13.00
2023-01-02T11:10:25.119Z,7.00
2023-01-02T11:12:51.633Z,9.00
2023-01-02T11:15:24.487Z,9.80
2023-01-02T11:17:50.980Z,14.00
2023-01-02T11:20:37.710Z,12.20
2023-01-02T11:23:04.678Z,8.00
2023-01-02T11:25:39.580Z,7.00
2023-01-02T11:28:06.573Z,6.60
2023-01-02T11:30:36.110Z,8.20
2023-01-02T11:33:05.660Z,6.25
2023-01-02T11:35:39.786Z,6.25
2023-01-02T11:38:12.347Z,5.50
2023-01-02T11:40:51.074Z,7.00
2023-01-02T11:43:37.065Z,21.00
2023-01-02T11:46:10.596Z,9.00
2023-01-02T11:48:37.288Z,6.20
2023-01-02T11:51:03.841Z,5.00
2023-01-02T11:53:38.537Z,4.75
2023-01-02T11:56:10.854Z,4.00
2023-01-02T11:58:41.449Z,4.00
2023-01-02T12:01:29.724Z,4.40
2023-01-02T12:03:56.476Z,5.00
2023-01-02T12:06:37.972Z,5.33
2023-01-02T12:09:14.828Z,6.00
2023-01-02T12:11:59.681Z,5.50
2023-01-02T12:14:38.378Z,6.50
2023-01-02T12:17:23.056Z,4.25
2023-01-02T12:19:52.314Z,7.00
2023-01-02T12:22:24.884Z,4.50
2023-01-02T12:24:57.408Z,7.00
2023-01-02T12:27:47.004Z,6.00
2023-01-02T12:30:18.549Z,7.50
2023-01-02T12:32:45.328Z,4.80
2023-01-02T12:35:30.148Z,6.00
2023-01-02T12:37:57.899Z,7.80
2023-01-02T12:40:34.794Z,5.00
2023-01-02T12:43:01.298Z,3.67
2023-01-02T12:45:42.614Z,6.00
2023-01-02T12:48:09.034Z,5.40
2023-01-02T12:50:35.593Z,7.33
2023-01-02T12:53:10.801Z,5.50
2023-01-02T12:55:37.238Z,7.00
2023-01-02T12:58:03.720Z,5.40
2023-01-02T13:00:30.170Z,5.60
2023-01-02T13:02:59.390Z,5.20
2023-01-02T13:05:30.979Z,8.40
2023-01-02T13:08:00.343Z,5.00
2023-01-02T13:10:27.761Z,4.00
2023-01-02T13:12:56.121Z,5.00
2023-01-02T13:15:28.096Z,6.50
2023-01-02T13:18:18.148Z,6.00
2023-01-02T13:21:08.567Z,4.00
2023-01-02T13:23:39.998Z,6.00
2023-01-02T13:26:08.114Z,5.00
2023-01-02T13:28:41.399Z,5.60
2023-01-02T13:31:44.732Z,6.00
2023-01-02T13:33:57.145Z,4.00
2023-01-02T13:36:26.796Z,4.20
2023-01-02T13:39:00.667Z,5.00
2023-01-02T13:41:28.675Z,4.00
2023-01-02T13:43:56.857Z,5.00
2023-01-02T13:47:01.396Z,4.00
2023-01-02T13:49:18.247Z,6.00
2023-01-02T13:51:45.628Z,4.60
2023-01-02T13:54:17.211Z,5.00
2023-01-02T13:57:02.577Z,6.00
2023-01-02T13:59:42.878Z,5.60
2023-01-02T14:02:17.272Z,6.00
2023-01-02T14:04:44.039Z,6.60
2023-01-02T14:07:25.628Z,6.00
2023-01-02T14:10:18.375Z,5.40
2023-01-02T14:12:53.307Z,5.00
2023-01-02T14:15:21.913Z,7.00
2023-01-02T14:17:55.415Z,5.00
2023-01-02T14:20:23.244Z,6.00
2023-01-02T14:22:52.019Z,6.60
2023-01-02T14:25:18.673Z,6.00
2023-01-02T14:27:50.299Z,6.00
2023-01-02T14:30:21.477Z,5.75
2023-01-02T14:32:50.713Z,6.40
2023-01-02T14:35:17.143Z,6.00
2023-01-02T14:38:05.665Z,7.00
2023-01-02T14:40:37.644Z,8.00
2023-01-02T14:43:27.290Z,7.20
2023-01-02T14:45:57.104Z,6.00
2023-01-02T14:48:31.209Z,6.00
2023-01-02T14:51:02.039Z,6.00
2023-01-02T14:53:32.329Z,5.80
2023-01-02T14:56:02.915Z,7.80
2023-01-02T14:58:32.207Z,7.20
2023-01-02T15:01:04.220Z,8.00
2023-01-02T15:03:35.315Z,5.25
2023-01-02T15:06:20.665Z,7.00
2023-01-02T15:08:49.372Z,6.00
2023-01-02T15:11:39.188Z,8.50
2023-01-02T15:14:06.740Z,7.00
2023-01-02T15:16:38.227Z,8.00
2023-01-02T15:19:04.840Z,8.00
2023-01-02T15:21:31.636Z,8.50
2023-01-02T15:24:00.329Z,7.00
2023-01-02T15:26:32.481Z,7.00
2023-01-02T15:29:01.895Z,7.33
2023-01-02T15:31:28.731Z,8.00
2023-01-02T15:33:57.005Z,7.20
2023-01-02T15:36:32.962Z,7.80
2023-01-02T15:39:19.677Z,7.60
2023-01-02T15:41:50.308Z,6.50
2023-01-02T15:44:40.887Z,7.00
2023-01-02T15:47:10.569Z,8.00
2023-01-02T15:49:40.838Z,6.25
2023-01-02T15:52:08.211Z,6.40
2023-01-02T15:54:36.430Z,7.00
2023-01-02T15:57:12.661Z,7.25
2023-01-02T15:59:39.437Z,6.00
2023-01-02T16:02:08.501Z,7.00
2023-01-02T16:04:35.254Z,10.33
2023-01-02T16:07:13.627Z,6.50
2023-01-02T16:09:42.714Z,8.00
2023-01-02T16:12:19.546Z,8.00
2023-01-02T16:14:50.678Z,9.00
2023-01-02T16:17:28.253Z,7.25
2023-01-02T16:20:12.911Z,11.00
2023-01-02T16:22:48.669Z,11.00
2023-01-02T16:25:35.553Z,10.20
2023-01-02T16:28:34.186Z,9.50
2023-01-02T16:31:07.643Z,11.00
2023-01-02T16:33:37.824Z,10.00
2023-01-02T16:36:04.278Z,10.00
2023-01-02T16:38:49.404Z,11.00
2023-01-02T16:41:41.079Z,9.00
2023-01-02T16:44:14.757Z,9.00
2023-01-02T16:46:42.382Z,9.00
2023-01-02T16:49:11.536Z,10.00
2023-01-02T16:51:38.034Z,11.00
2023-01-02T16:54:04.547Z,10.40
2023-01-02T16:56:31.668Z,8.80
2023-01-02T16:58:58.109Z,11.80
2023-01-02T17:01:24.733Z,11.00
2023-01-02T17:03:51.207Z,10.50
2023-01-02T17:06:19.103Z,10.00
2023-01-02T17:08:45.802Z,10.00
2023-01-02T17:11:16.290Z,11.00
2023-01-02T17:13:42.801Z,8.40
2023-01-02T17:16:09.389Z,9.60
2023-01-02T17:18:36.048Z,8.40
2023-01-02T17:21:02.603Z,9.00
2023-01-02T17:23:29.080Z,11.00
2023-01-02T17:25:55.577Z,10.80
2023-01-02T17:28:22.062Z,9.00
2023-01-02T17:30:51.402Z,9.00
2023-01-02T17:33:18.286Z,11.25
2023-01-02T17:35:45.169Z,11.00
2023-01-02T17:38:11.694Z,10.60
2023-01-02T17:40:38.222Z,10.00
2023-01-02T17:43:05.080Z,10.00
2023-01-02T17:45:31.598Z,11.00
2023-01-02T17:48:03.552Z,10.60
2023-01-02T17:50:34.391Z,11.00
2023-01-02T17:53:00.889Z,13.00
2023-01-02T17:55:27.344Z,12.00
2023-01-02T17:57:53.939Z,13.20
2023-01-02T18:00:23.496Z,11.25
2023-01-02T18:02:51.616Z,14.00
2023-01-02T18:05:18.221Z,17.60
2023-01-02T18:07:44.819Z,15.00
2023-01-02T18:10:16.003Z,15.00
2023-01-02T18:12:46.488Z,14.40
2023-01-02T18:15:14.061Z,16.40
2023-01-02T18:17:40.662Z,19.50
2023-01-02T18:20:11.335Z,21.25
2023-01-02T18:22:42.409Z,23.50
2023-01-02T18:25:19.408Z,26.40
2023-01-02T18:27:46.639Z,24.00
2023-01-02T18:30:16.825Z,20.00
2023-01-02T18:32:43.519Z,24.75
2023-01-02T18:35:54.755Z,20.75
2023-01-02T18:38:07.077Z,13.25
2023-01-02T18:40:34.790Z,14.00
2023-01-02T18:43:20.544Z,16.75
2023-01-02T18:45:51.514Z,16.00
2023-01-02T18:48:18.865Z,16.20
2023-01-02T18:50:50.792Z,18.00
2023-01-02T18:53:18.611Z,19.50
2023-01-02T18:55:45.593Z,19.33
2023-01-02T18:58:32.297Z,20.00
2023-01-02T19:00:59.896Z,20.00
2023-01-02T19:03:27.579Z,20.00
2023-01-02T19:05:54.277Z,23.00
2023-01-02T19:08:38.923Z,22.75
2023-01-02T19:11:36.545Z,22.25
2023-01-02T19:14:17.291Z,22.00
2023-01-02T19:16:44.133Z,25.50
2023-01-02T19:19:23.913Z,26.00
2023-01-02T19:21:51.062Z,28.80
2023-01-02T19:24:19.029Z,30.00
2023-01-02T19:26:47.299Z,24.00
2023-01-02T19:29:23.939Z,22.00
2023-01-02T19:31:54.013Z,21.60
2023-01-02T19:34:39.034Z,22.75
2023-01-02T19:37:11.758Z,19.80
2023-01-02T19:39:44.494Z,20.25
2023-01-02T19:42:20.569Z,22.40
2023-01-02T19:44:49.984Z,22.00
2023-01-02T19:47:16.922Z,19.50
2023-01-02T19:49:43.375Z,20.50
2023-01-02T19:52:10.366Z,21.00
2023-01-02T19:54:40.057Z,21.00
2023-01-02T19:57:07.453Z,21.00
2023-01-02T19:59:37.305Z,19.80
2023-01-02T20:02:08.311Z,19.20
2023-01-02T20:04:34.996Z,21.00
2023-01-02T20:07:01.463Z,19.00
2023-01-02T20:09:29.570Z,19.75
2023-01-02T20:12:14.669Z,20.00
2023-01-02T20:14:41.372Z,21.00
2023-01-02T20:17:08.244Z,19.60
2023-01-02T20:19:35.288Z,19.00
2023-01-02T20:22:02.084Z,19.00
2023-01-02T20:24:29.203Z,21.50
2023-01-02T20:26:56.430Z,19.00
2023-01-02T20:29:23.422Z,19.40
2023-01-02T20:31:50.474Z,20.80
2023-01-02T20:34:16.970Z,20.60
2023-01-02T20:36:43.439Z,21.50
2023-01-02T20:39:10.098Z,19.00
2023-01-02T20:41:40.152Z,23.00
2023-01-02T20:44:10.362Z,23.00
2023-01-02T20:46:37.412Z,20.00
2023-01-02T20:49:04.579Z,21.00
2023-01-02T20:51:31.345Z,23.00
2023-01-02T20:53:59.286Z,28.00
2023-01-02T20:56:26.137Z,22.00
2023-01-02T20:58:53.473Z,25.80
2023-01-02T21:01:20.794Z,25.00
2023-01-02T21:03:47.529Z,22.75
2023-01-02T21:06:14.159Z,23.00
2023-01-02T21:08:40.621Z,26.25
2023-01-02T21:11:07.105Z,22.00
2023-01-02T21:13:33.628Z,21.25
2023-01-02T21:16:00.524Z,21.60
2023-01-02T21:18:31.155Z,21.75
2023-01-02T21:21:11.625Z,23.80
2023-01-02T21:23:39.335Z,21.00
2023-01-02T21:26:06.434Z,20.00
2023-01-02T21:28:32.963Z,19.00
2023-01-02T21:30:59.665Z,19.40
2023-01-02T21:33:27.334Z,21.25
2023-01-02T21:35:54.692Z,23.00
2023-01-02T21:38:22.113Z,23.00
2023-01-02T21:40:48.892Z,20.40
2023-01-02T21:43:15.492Z,21.75
2023-01-02T21:45:42.179Z,22.40
2023-01-02T21:48:08.668Z,22.00
2023-01-02T21:50:35.137Z,21.75
2023-01-02T21:53:01.608Z,20.00
2023-01-02T21:55:28.544Z,21.00
2023-01-02T22:00:42.266Z,22.00
2023-01-02T22:03:08.914Z,22.00
2023-01-02T22:05:35.512Z,21.60
2023-01-02T22:08:02.020Z,22.00
2023-01-02T22:10:28.478Z,21.50
2023-01-02T22:12:55.019Z,20.40
2023-01-02T22:15:21.491Z,21.25
2023-01-02T22:17:47.976Z,21.00
2023-01-02T22:20:14.499Z,22.00
2023-01-02T22:22:41.008Z,22.00
2023-01-02T22:25:08.292Z,22.00
2023-01-02T22:27:34.745Z,22.00
2023-01-02T22:32:48.601Z,22.50
2023-01-02T22:35:15.200Z,23.00
2023-01-02T22:37:41.655Z,22.00
2023-01-02T22:40:08.389Z,23.00
2023-01-02T22:43:10.190Z,22.00
2023-01-02T22:45:40.942Z,22.40
2023-01-02T22:48:14.419Z,23.00
2023-01-02T22:50:43.652Z,22.33
2023-01-02T22:53:15.652Z,22.60
2023-01-02T22:55:42.186Z,21.25
2023-01-02T22:58:08.801Z,20.75
2023-01-02T23:00:35.282Z,22.80
2023-01-02T23:03:01.816Z,24.00
2023-01-02T23:05:28.447Z,21.80
2023-01-02T23:07:55.010Z,20.40
2023-01-02T23:10:21.541Z,22.00
2023-01-02T23:12:48.085Z,21.75
2023-01-02T23:15:14.641Z,23.50
2023-01-02T23:17:59.893Z,22.00
2023-01-02T23:20:26.459Z,21.00
2023-01-02T23:22:53.019Z,22.50
2023-01-02T23:25:19.467Z,21.75
2023-01-02T23:27:46.006Z,23.40
2023-01-02T23:30:12.657Z,23.00
2023-01-02T23:32:39.172Z,22.00
2023-01-02T23:35:06.032Z,22.00
2023-01-02T23:37:32.553Z,21.00
2023-01-02T23:39:59.018Z,22.00
2023-01-02T23:42:25.477Z,20.60
2023-01-02T23:44:51.960Z,20.75
2023-01-02T23:47:19.479Z,21.40
2023-01-02T23:49:46.163Z,21.00
2023-01-02T23:52:12.624Z,21.00
2023-01-02T23:54:39.125Z,22.00
2023-01-02T23:57:05.622Z,22.00
2023-01-02T23:59:32.118Z,22.00
